Terminal Aerodrome Forecast
Issued by NWS

Home | Current Version | Previous Version | Text Only | Print | Product List | Glossary Off
Versions: 1 2 3 4 5 6 7 8 9 10 11 12 13 14 15

367
FTUS45 KGGW 230828 AAA
TAFSDY
TAF AMD
KSDY 230828Z 2308/2406 09014KT P6SM BKN015
     FM231800 11015G23KT P6SM OVC020
     FM240000 10015G23KT P6SM VCSH BKN030=

USA.gov is the U.S. government's official web portal to all federal, state and local government web resources and services.